TimeCDT,TemperatureF,Dew PointF,Humidity,Sea Level PressureIn,VisibilityMPH,Wind Direction,Wind SpeedMPH,Gust SpeedMPH,PrecipitationIn,Events,Conditions,WindDirDegrees,DateUTC
12:56 AM,53.1,48.0,83,30.19,10.0,North,3.5,-,N/A,,Clear,10,2011-10-04 05:56:00
1:56 AM,54.0,45.0,72,30.19,10.0,Calm,Calm,-,N/A,,Clear,0,2011-10-04 06:56:00
2:56 AM,53.1,45.0,74,30.18,10.0,North,3.5,-,N/A,,Clear,10,2011-10-04 07:56:00
3:56 AM,52.0,45.0,77,30.18,10.0,North,4.6,-,N/A,,Clear,360,2011-10-04 08:56:00
4:56 AM,54.0,44.1,69,30.19,10.0,Calm,Calm,-,N/A,,Clear,0,2011-10-04 09:56:00
5:56 AM,53.1,44.1,71,30.20,10.0,Calm,Calm,-,N/A,,Clear,0,2011-10-04 10:56:00
6:56 AM,52.0,44.1,74,30.22,10.0,North,3.5,-,N/A,,Clear,350,2011-10-04 11:56:00
7:56 AM,57.9,48.0,70,30.24,10.0,NE,5.8,-,N/A,,Clear,40,2011-10-04 12:56:00
8:56 AM,64.0,48.9,58,30.25,10.0,NE,4.6,-,N/A,,Clear,40,2011-10-04 13:56:00
9:56 AM,70.0,48.0,46,30.26,10.0,NE,5.8,-,N/A,,Clear,50,2011-10-04 14:56:00
10:56 AM,73.0,46.9,39,30.26,10.0,ENE,5.8,-,N/A,,Clear,60,2011-10-04 15:56:00
11:56 AM,75.0,46.9,37,30.25,10.0,East,3.5,-,N/A,,Clear,80,2011-10-04 16:56:00
12:56 PM,77.0,46.9,34,30.22,10.0,Variable,5.8,-,N/A,,Clear,0,2011-10-04 17:56:00
1:56 PM,78.8,46.4,32,30.19,10.0,Variable,4.6,-,N/A,,Clear,0,2011-10-04 18:56:00
2:56 PM,82.0,45.0,27,30.17,10.0,North,5.8,-,N/A,,Partly Cloudy,360,2011-10-04 19:56:00
3:56 PM,81.0,45.0,28,30.15,10.0,Variable,3.5,-,N/A,,Partly Cloudy,0,2011-10-04 20:56:00
4:56 PM,80.1,44.1,28,30.15,10.0,North,6.9,-,N/A,,Partly Cloudy,10,2011-10-04 21:56:00
5:56 PM,77.0,46.4,34,30.15,10.0,North,5.8,-,N/A,,Partly Cloudy,360,2011-10-04 22:56:00
6:56 PM,69.1,48.9,49,30.15,10.0,North,4.6,-,N/A,,Partly Cloudy,360,2011-10-04 23:56:00
7:56 PM,62.6,51.8,68,30.16,10.0,Calm,Calm,-,N/A,,Clear,0,2011-10-05 00:56:00
8:56 PM,62.1,52.0,70,30.17,10.0,Calm,Calm,-,N/A,,Clear,0,2011-10-05 01:56:00
9:56 PM,62.1,50.0,65,30.17,10.0,North,3.5,-,N/A,,Clear,360,2011-10-05 02:56:00
10:56 PM,62.1,48.9,62,30.17,10.0,Calm,Calm,-,N/A,,Clear,0,2011-10-05 03:56:00
11:56 PM,57.0,50.0,77,30.17,10.0,North,3.5,-,N/A,,Clear,360,2011-10-05 04:56:00